Airfield :
LOGIN :

Register | Disclaimer

   EN    FR    IT 

 










Legend :    VFR   Marginal VFR   IFR   Intensive IFR   Very Intensive IFR
Visi :
Ceiling :
>= 8 km
>= 3000ft
5 to 8 km
1000 to 3000 ft
1500m to 5 km
500 to 1000 ft
800 to 1500m
200 to 500 ft
< 800m
< 200 ft
Symbols :   Thunderstorms  Fog  Heavy snow  Heavy precipitations  Wind > 20 kt
SIGMETs :     Misc.  Thunderstorms  Icing  Turbulence  Mountain Waves  Volcanic Ashes







- Airport Elevation : 856 ft
- IATA code : VGO


LEVX - Vigo Peinador

CURRENT METAR :
  • 130615Z 35003KT 260V050 9999 -RA FEW012 FEW020CB SCT030 BKN050 07/06 Q1010 RESHRA TEMPO 3000 SHRA TS SCT020CB

EXPIRED METARs :
  • 130600Z 33009G19KT 280V030 3000 +SHRA SCT014 SCT020CB BKN030 07/05 Q1011 TEMPO 9999 NSW
  • 130550Z 34005G15KT 300V050 3000 +SHRA SCT014 SCT020CB BKN030 08/06 Q1010 TEMPO 9999 NSW
  • 130530Z 33008KT 300V020 9999 -SHRA FEW016 FEW020CB BKN030 08/06 Q1010 TEMPO 3000 SHRA TS SCT020CB
  • 130500Z 27011KT 210V330 8000 -SHRA SCT016 FEW020CB BKN035 08/06 Q1009 RETSRA TEMPO 3000 SHRA
  • 130446Z 27021KT 240V320 3000 +TSRA FEW008 SCT020CB BKN046 07/05 Q1009 TEMPO 9999 NSW
  • 130430Z 27007KT 230V330 9999 FEW024 BKN045 10/06 Q1009 TEMPO 3000 SHRA SCT020TCU
  • 130400Z 26005KT 210V330 9999 SCT024 BKN036 09/07 Q1009 TEMPO 3000 SHRA SCT020TCU
  • 130330Z 08001KT 9999 SCT017 BKN026 08/07 Q1008 TEMPO 3000 SHRA SCT020TCU

TAF TAF LEVX
Valid from the 13 at 06:00 until the 14 at 06:00 UTC


130500Z 1306/1406 29009KT 9999 BKN030 TX13/1312Z TN05/1406Z
TEMPO 1306/1318 30015G30KT
TEMPO 1306/1318 SHRA SCT020TCU
TEMPO 1306/1315 3000 SHRA RA BKN014 SCT020TCU
PROB40
TEMPO 1306/1312 3000 SHRA TS SCT020CB
No reported NOTAMs for that airfield.
3 SIGMETs reported for the Madrid FIR (LECM) :
 
Severe turbulence
LECM SIGMET 3 VALID 130540/130800 LEVA
LECM MADRID UIR SEV TURB OBS AT 0540Z WI N4340 W00211 - N4247 W00209 - N4243 W00113 - N4309 W00124 - N4340 W00211 FL360/380 STNR NC=
Severe turbulence
LECM SIGMET 2 VALID 130600/131000 LEVA
LECM MADRID FIR/UIR SEV TURB FCST W OF LINE N3757 W00501 - N3554 W00417 FL240/340 MOV E NC=
Severe turbulence
LECM SIGMET 1 VALID 130400/130800 LEVA
LECM MADRID FIR SEV TURB FCST W OF LINE N4435 W006 - N3551 W00506 SFC/FL220 MOV E NC=



MET'MAP, your aeronautical weather chart ! - Copyright ORBIFLY December 2007 - Disclaimer

ORBIFLY MET'MAP TEAM :

Programming & Development : Alexandra Zaïnal
Concept & Development : Baudouin d'Aumeries
Co-Development & Prog : Marc-Olivier Méhu
Technical & hardware support : Manuel Goepfert

Contact : metmap@orbifly.com




SOURCES & CREDITS :

   NOAA